Time,TemperatureF,DewpointF,PressureIn,WindDirection,WindDirectionDegrees,WindSpeedMPH,WindSpeedGustMPH,Humidity,HourlyPrecipIn,Conditions,Clouds,dailyrainin,SoftwareType,DateUTC
2013-02-15 00:00:00,32.9,12.9,30.39,SSW,213,0.0,2.7,43,0.00,,---,0.00,VWS V14.01,2013-02-15 07:00:00,
2013-02-15 00:05:00,33.1,13.0,30.39,SSW,213,0.0,2.7,43,0.00,,---,0.00,VWS V14.01,2013-02-15 07:05:00,
2013-02-15 00:10:00,33.4,13.4,30.39,SSW,213,0.0,2.7,43,0.00,,---,0.00,VWS V14.01,2013-02-15 07:10:00,
2013-02-15 00:15:00,33.3,13.2,30.39,SW,214,0.0,0.0,43,0.00,,---,0.00,VWS V14.01,2013-02-15 07:15:00,
2013-02-15 00:20:00,33.3,13.2,30.39,SW,222,0.0,0.0,43,0.00,,---,0.00,VWS V14.01,2013-02-15 07:20:00,
2013-02-15 00:25:00,33.3,13.2,30.39,SW,222,0.0,0.0,43,0.00,,---,0.00,VWS V14.01,2013-02-15 07:25:00,
2013-02-15 00:30:00,33.1,13.6,30.39,WSW,252,0.0,0.0,44,0.00,,---,0.00,VWS V14.01,2013-02-15 07:30:00,
2013-02-15 00:35:00,33.1,13.6,30.39,WSW,252,0.0,0.0,44,0.00,,---,0.00,VWS V14.01,2013-02-15 07:35:00,
2013-02-15 00:40:00,32.9,13.4,30.39,WSW,252,0.0,0.0,44,0.00,,---,0.00,VWS V14.01,2013-02-15 07:40:00,
2013-02-15 00:45:00,32.9,13.4,30.39,WSW,252,0.0,0.0,44,0.00,,---,0.00,VWS V14.01,2013-02-15 07:45:00,
2013-02-15 00:50:00,32.9,13.9,30.39,West,275,0.0,0.0,45,0.00,,---,0.00,VWS V14.01,2013-02-15 07:50:00,
2013-02-15 00:55:00,33.1,14.1,30.42,West,275,0.0,0.0,45,0.00,,---,0.00,VWS V14.01,2013-02-15 07:55:00,
2013-02-15 01:00:00,33.1,14.1,30.42,West,275,0.0,0.0,45,0.00,,---,0.00,VWS V14.01,2013-02-15 08:00:00,
2013-02-15 01:05:00,33.3,14.2,30.42,North,0,0.0,3.6,45,0.00,,---,0.00,VWS V14.01,2013-02-15 08:05:00,
2013-02-15 01:10:00,33.1,14.1,30.42,North,11,0.0,3.6,45,0.00,,---,0.00,VWS V14.01,2013-02-15 08:10:00,
2013-02-15 01:15:00,33.3,14.2,30.42,North,11,0.0,0.0,45,0.00,,---,0.00,VWS V14.01,2013-02-15 08:15:00,
2013-02-15 01:20:00,33.4,14.4,30.42,North,11,0.0,0.0,45,0.00,,---,0.00,VWS V14.01,2013-02-15 08:20:00,
2013-02-15 01:25:00,33.4,14.4,30.42,North,11,0.0,0.0,45,0.00,,---,0.00,VWS V14.01,2013-02-15 08:25:00,
2013-02-15 01:30:00,33.4,14.4,30.42,WNW,302,0.0,0.0,45,0.00,,---,0.00,VWS V14.01,2013-02-15 08:30:00,
2013-02-15 01:35:00,33.3,13.7,30.42,WNW,302,0.0,0.0,44,0.00,,---,0.00,VWS V14.01,2013-02-15 08:35:00,
2013-02-15 01:40:00,32.9,13.4,30.42,SSW,208,0.0,0.0,44,0.00,,---,0.00,VWS V14.01,2013-02-15 08:40:00,
2013-02-15 01:45:00,32.9,13.9,30.42,South,176,3.6,4.0,45,0.00,,---,0.00,VWS V14.01,2013-02-15 08:45:00,
2013-02-15 01:50:00,33.1,14.1,30.42,SSE,167,0.0,4.0,45,0.00,,---,0.00,VWS V14.01,2013-02-15 08:50:00,
2013-02-15 01:55:00,32.9,13.9,30.42,South,169,0.0,4.0,45,0.00,,---,0.00,VWS V14.01,2013-02-15 08:55:00,
2013-02-15 02:00:00,32.7,13.7,30.42,South,169,0.0,0.0,45,0.00,,---,0.00,VWS V14.01,2013-02-15 09:00:00,
2013-02-15 02:05:00,32.5,13.6,30.42,SSW,205,0.0,0.0,45,0.00,,---,0.00,VWS V14.01,2013-02-15 09:05:00,
2013-02-15 02:10:00,32.4,13.9,30.39,SSW,205,0.0,0.0,46,0.00,,---,0.00,VWS V14.01,2013-02-15 09:10:00,
2013-02-15 02:15:00,32.2,13.7,30.39,WSW,240,0.0,0.0,46,0.00,,---,0.00,VWS V14.01,2013-02-15 09:15:00,
2013-02-15 02:20:00,32.0,13.6,30.39,WSW,240,0.0,2.2,46,0.00,,---,0.00,VWS V14.01,2013-02-15 09:20:00,
2013-02-15 02:25:00,32.0,13.6,30.39,WSW,247,0.0,3.6,46,0.00,,---,0.00,VWS V14.01,2013-02-15 09:25:00,
2013-02-15 02:30:00,32.2,13.7,30.39,SW,229,0.0,2.7,46,0.00,,---,0.00,VWS V14.01,2013-02-15 09:30:00,
2013-02-15 02:35:00,32.4,13.9,30.39,SW,229,0.0,2.7,46,0.00,,---,0.00,VWS V14.01,2013-02-15 09:35:00,
2013-02-15 02:40:00,32.2,14.2,30.39,WSW,252,0.0,2.7,47,0.00,,---,0.00,VWS V14.01,2013-02-15 09:40:00,
2013-02-15 02:45:00,32.5,14.6,30.39,WSW,252,0.0,0.0,47,0.00,,---,0.00,VWS V14.01,2013-02-15 09:45:00,
2013-02-15 02:50:00,32.5,14.6,30.39,West,269,0.0,0.0,47,0.00,,---,0.00,VWS V14.01,2013-02-15 09:50:00,
2013-02-15 02:55:00,32.4,14.4,30.39,West,269,0.0,0.0,47,0.00,,---,0.00,VWS V14.01,2013-02-15 09:55:00,
2013-02-15 03:00:00,32.2,14.7,30.39,WSW,256,0.0,0.0,48,0.00,,---,0.00,VWS V14.01,2013-02-15 10:00:00,
2013-02-15 03:05:00,32.0,14.1,30.39,South,190,0.0,0.0,47,0.00,,---,0.00,VWS V14.01,2013-02-15 10:05:00,
2013-02-15 03:10:00,32.0,14.6,30.39,South,190,0.0,0.0,48,0.00,,---,0.00,VWS V14.01,2013-02-15 10:10:00,
2013-02-15 03:15:00,32.2,15.2,30.39,WNW,290,0.0,0.0,49,0.00,,---,0.00,VWS V14.01,2013-02-15 10:15:00,
2013-02-15 03:20:00,32.4,15.8,30.39,NW,323,0.0,0.0,50,0.00,,---,0.00,VWS V14.01,2013-02-15 10:20:00,
2013-02-15 03:25:00,32.4,15.8,30.42,WNW,298,0.0,0.0,50,0.00,,---,0.00,VWS V14.01,2013-02-15 10:25:00,
2013-02-15 03:30:00,32.5,16.0,30.42,WNW,298,0.0,0.0,50,0.00,,---,0.00,VWS V14.01,2013-02-15 10:30:00,
2013-02-15 03:35:00,32.5,16.0,30.42,West,268,0.0,0.0,50,0.00,,---,0.00,VWS V14.01,2013-02-15 10:35:00,
2013-02-15 03:40:00,32.5,16.0,30.42,SW,236,0.0,0.0,50,0.00,,---,0.00,VWS V14.01,2013-02-15 10:40:00,
2013-02-15 03:45:00,32.7,15.7,30.42,SW,236,0.0,0.0,49,0.00,,---,0.00,VWS V14.01,2013-02-15 10:45:00,
2013-02-15 03:50:00,32.5,15.5,30.42,SW,236,0.0,0.0,49,0.00,,---,0.00,VWS V14.01,2013-02-15 10:50:00,
2013-02-15 03:55:00,32.5,15.5,30.42,SW,236,0.0,0.0,49,0.00,,---,0.00,VWS V14.01,2013-02-15 10:55:00,
2013-02-15 04:00:00,32.4,15.8,30.42,SW,236,0.0,0.0,50,0.00,,---,0.00,VWS V14.01,2013-02-15 11:00:00,
2013-02-15 04:05:00,32.2,15.6,30.42,SW,236,0.0,0.0,50,0.00,,---,0.00,VWS V14.01,2013-02-15 11:05:00,
2013-02-15 04:10:00,32.2,15.6,30.42,SW,236,0.0,0.0,50,0.00,,---,0.00,VWS V14.01,2013-02-15 11:10:00,
2013-02-15 04:15:00,32.2,15.6,30.42,SW,236,0.0,0.0,50,0.00,,---,0.00,VWS V14.01,2013-02-15 11:15:00,
2013-02-15 04:20:00,32.0,15.0,30.42,SW,236,0.0,0.0,49,0.00,,---,0.00,VWS V14.01,2013-02-15 11:20:00,
2013-02-15 04:25:00,31.8,14.9,30.42,SW,236,0.0,0.0,49,0.00,,---,0.00,VWS V14.01,2013-02-15 11:25:00,
2013-02-15 04:30:00,32.2,15.6,30.42,West,269,0.0,0.0,50,0.00,,---,0.00,VWS V14.01,2013-02-15 11:30:00,
2013-02-15 04:35:00,32.0,15.5,30.42,SSW,202,0.0,0.0,50,0.00,,---,0.00,VWS V14.01,2013-02-15 11:35:00,
2013-02-15 04:40:00,32.0,15.5,30.42,WSW,242,0.0,0.0,50,0.00,,---,0.00,VWS V14.01,2013-02-15 11:40:00,
2013-02-15 04:45:00,32.2,15.6,30.42,WSW,242,0.0,0.0,50,0.00,,---,0.00,VWS V14.01,2013-02-15 11:45:00,
2013-02-15 04:50:00,32.5,16.0,30.42,WSW,242,0.0,0.0,50,0.00,,---,0.00,VWS V14.01,2013-02-15 11:50:00,
2013-02-15 04:55:00,32.5,16.0,30.42,WSW,242,0.0,0.0,50,0.00,,---,0.00,VWS V14.01,2013-02-15 11:55:00,
2013-02-15 05:00:00,32.2,15.6,30.42,WSW,242,0.0,0.0,50,0.00,,---,0.00,VWS V14.01,2013-02-15 12:00:00,
2013-02-15 05:05:00,32.0,15.5,30.42,WSW,242,0.0,0.0,50,0.00,,---,0.00,VWS V14.01,2013-02-15 12:05:00,
2013-02-15 05:10:00,31.6,15.1,30.42,WSW,242,0.0,0.0,50,0.00,,---,0.00,VWS V14.01,2013-02-15 12:10:00,
2013-02-15 05:15:00,31.5,15.0,30.42,WSW,242,0.0,0.0,50,0.00,,---,0.00,VWS V14.01,2013-02-15 12:15:00,
2013-02-15 05:20:00,31.1,14.6,30.42,WSW,242,0.0,0.0,50,0.00,,---,0.00,VWS V14.01,2013-02-15 12:20:00,
2013-02-15 05:25:00,30.6,14.1,30.42,WSW,242,0.0,0.0,50,0.00,,---,0.00,VWS V14.01,2013-02-15 12:25:00,
2013-02-15 05:30:00,30.2,14.3,30.42,WNW,282,0.0,0.0,51,0.00,,---,0.00,VWS V14.01,2013-02-15 12:30:00,
2013-02-15 05:35:00,30.0,14.1,30.42,West,277,0.0,0.0,51,0.00,,---,0.00,VWS V14.01,2013-02-15 12:35:00,
2013-02-15 05:40:00,29.5,13.6,30.42,West,277,0.0,0.0,51,0.00,,---,0.00,VWS V14.01,2013-02-15 12:40:00,
2013-02-15 05:46:00,29.5,13.6,30.42,SSE,157,0.0,0.0,51,0.00,,---,0.00,VWS V14.01,2013-02-15 12:46:00,
2013-02-15 05:51:00,29.1,13.7,30.42,South,172,0.0,0.0,52,0.00,,---,0.00,VWS V14.01,2013-02-15 12:51:00,
2013-02-15 05:56:00,28.9,13.5,30.42,South,172,0.0,0.0,52,0.00,,---,0.00,VWS V14.01,2013-02-15 12:56:00,
2013-02-15 06:01:00,28.6,13.2,30.42,South,172,0.0,0.0,52,0.00,,---,0.00,VWS V14.01,2013-02-15 13:01:00,
2013-02-15 06:06:00,28.6,13.2,30.42,SSW,194,0.0,0.0,52,0.00,,---,0.00,VWS V14.01,2013-02-15 13:06:00,
2013-02-15 06:11:00,28.8,13.4,30.42,SSW,194,0.0,0.0,52,0.00,,---,0.00,VWS V14.01,2013-02-15 13:11:00,
2013-02-15 06:16:00,28.6,13.2,30.42,West,271,0.0,0.0,52,0.00,,---,0.00,VWS V14.01,2013-02-15 13:16:00,
2013-02-15 06:21:00,28.8,13.8,30.42,WNW,288,0.0,0.0,53,0.00,,---,0.00,VWS V14.01,2013-02-15 13:21:00,
2013-02-15 06:26:00,28.6,14.1,30.42,WNW,284,0.0,0.0,54,0.00,,---,0.00,VWS V14.01,2013-02-15 13:26:00,
2013-02-15 06:31:00,28.8,14.2,30.42,WNW,284,0.0,0.0,54,0.00,,---,0.00,VWS V14.01,2013-02-15 13:31:00,
2013-02-15 06:36:00,28.4,13.9,30.42,WNW,284,0.0,0.0,54,0.00,,---,0.00,VWS V14.01,2013-02-15 13:36:00,
2013-02-15 06:41:00,27.9,13.0,30.42,WNW,284,0.0,0.0,53,0.00,,---,0.00,VWS V14.01,2013-02-15 13:41:00,
2013-02-15 06:46:00,27.3,12.9,30.42,WNW,282,0.0,0.0,54,0.00,,---,0.00,VWS V14.01,2013-02-15 13:46:00,
2013-02-15 06:51:00,27.0,12.6,30.42,South,170,0.0,0.0,54,0.00,,---,0.00,VWS V14.01,2013-02-15 13:51:00,
2013-02-15 06:56:00,27.0,12.6,30.42,South,171,0.0,0.0,54,0.00,,---,0.00,VWS V14.01,2013-02-15 13:56:00,
2013-02-15 07:01:00,26.6,12.6,30.42,SSW,195,0.0,0.0,55,0.00,,---,0.00,VWS V14.01,2013-02-15 14:01:00,
2013-02-15 07:06:00,26.2,11.9,30.42,SSW,195,0.0,0.0,54,0.00,,---,0.00,VWS V14.01,2013-02-15 14:06:00,
2013-02-15 07:11:00,26.4,12.9,30.42,West,277,2.7,3.6,56,0.00,,---,0.00,VWS V14.01,2013-02-15 14:11:00,
2013-02-15 07:16:00,26.4,12.9,30.42,West,275,2.2,2.7,56,0.00,,---,0.00,VWS V14.01,2013-02-15 14:16:00,
2013-02-15 07:21:00,26.2,12.7,30.42,West,268,0.0,2.7,56,0.00,,---,0.00,VWS V14.01,2013-02-15 14:21:00,
2013-02-15 07:26:00,26.1,12.5,30.42,West,268,0.0,2.7,56,0.00,,---,0.00,VWS V14.01,2013-02-15 14:26:00,
2013-02-15 07:31:00,25.9,11.9,30.42,West,271,0.0,0.0,55,0.00,,---,0.00,VWS V14.01,2013-02-15 14:31:00,
2013-02-15 07:36:00,26.1,12.5,30.42,West,271,0.0,0.0,56,0.00,,---,0.00,VWS V14.01,2013-02-15 14:36:00,
2013-02-15 07:41:00,26.2,12.7,30.42,West,271,0.0,0.0,56,0.00,,---,0.00,VWS V14.01,2013-02-15 14:41:00,
2013-02-15 07:46:00,26.4,12.9,30.42,West,271,0.0,0.0,56,0.00,,---,0.00,VWS V14.01,2013-02-15 14:46:00,
2013-02-15 07:51:00,26.4,12.9,30.42,West,271,0.0,0.0,56,0.00,,---,0.00,VWS V14.01,2013-02-15 14:51:00,
2013-02-15 07:56:00,26.6,13.0,30.42,West,271,0.0,0.0,56,0.00,,---,0.00,VWS V14.01,2013-02-15 14:56:00,
2013-02-15 08:01:00,26.8,13.2,30.42,SW,227,0.0,0.0,56,0.00,,---,0.00,VWS V14.01,2013-02-15 15:01:00,
2013-02-15 08:06:00,27.1,13.5,30.42,SW,227,0.0,0.0,56,0.00,,---,0.00,VWS V14.01,2013-02-15 15:06:00,
2013-02-15 08:11:00,27.9,14.6,30.39,WSW,248,0.0,0.0,57,0.00,,---,0.00,VWS V14.01,2013-02-15 15:11:00,
2013-02-15 08:16:00,28.0,14.8,30.39,WSW,248,0.0,0.0,57,0.00,,---,0.00,VWS V14.01,2013-02-15 15:16:00,
2013-02-15 08:21:00,28.4,15.5,30.39,WSW,248,0.0,0.0,58,0.00,,---,0.00,VWS V14.01,2013-02-15 15:21:00,
2013-02-15 08:26:00,28.6,15.3,30.42,WSW,248,0.0,0.0,57,0.00,,---,0.00,VWS V14.01,2013-02-15 15:26:00,
2013-02-15 08:31:00,28.8,15.5,30.42,WSW,247,0.0,0.0,57,0.00,,---,0.00,VWS V14.01,2013-02-15 15:31:00,
2013-02-15 08:36:00,28.8,15.5,30.42,WSW,247,0.0,0.0,57,0.00,,---,0.00,VWS V14.01,2013-02-15 15:36:00,
2013-02-15 08:41:00,28.8,15.5,30.42,WSW,253,0.0,0.0,57,0.00,,---,0.00,VWS V14.01,2013-02-15 15:41:00,
2013-02-15 08:46:00,28.9,15.6,30.42,WSW,253,0.0,0.0,57,0.00,,---,0.00,VWS V14.01,2013-02-15 15:46:00,
2013-02-15 08:51:00,29.3,16.0,30.42,WSW,253,0.0,0.0,57,0.00,,---,0.00,VWS V14.01,2013-02-15 15:51:00,
2013-02-15 08:56:00,29.5,16.1,30.42,WSW,253,0.0,0.0,57,0.00,,---,0.00,VWS V14.01,2013-02-15 15:56:00,
2013-02-15 09:01:00,30.2,16.8,30.42,SE,127,0.0,0.0,57,0.00,,---,0.00,VWS V14.01,2013-02-15 16:01:00,
2013-02-15 09:06:00,30.9,17.5,30.42,SE,127,0.0,0.0,57,0.00,,---,0.00,VWS V14.01,2013-02-15 16:06:00,
2013-02-15 09:11:00,32.5,19.4,30.42,SE,127,0.0,0.0,58,0.00,,---,0.00,VWS V14.01,2013-02-15 16:11:00,
2013-02-15 09:16:00,34.5,21.3,30.42,SE,127,0.0,0.0,58,0.00,,---,0.00,VWS V14.01,2013-02-15 16:16:00,
2013-02-15 09:21:00,35.8,20.8,30.42,SE,127,0.0,0.0,54,0.00,,---,0.00,VWS V14.01,2013-02-15 16:21:00,
2013-02-15 09:26:00,37.4,21.9,30.42,East,91,0.0,3.1,53,0.00,,---,0.00,VWS V14.01,2013-02-15 16:26:00,
2013-02-15 09:31:00,38.7,23.0,30.42,East,80,0.0,0.0,53,0.00,,---,0.00,VWS V14.01,2013-02-15 16:31:00,
2013-02-15 09:36:00,40.3,24.1,30.42,East,80,0.0,0.0,52,0.00,,---,0.00,VWS V14.01,2013-02-15 16:36:00,
2013-02-15 09:41:00,41.2,24.0,30.42,East,80,0.0,0.0,50,0.00,,---,0.00,VWS V14.01,2013-02-15 16:41:00,
2013-02-15 09:46:00,41.9,24.1,30.42,SSE,153,3.6,3.6,49,0.00,,---,0.00,VWS V14.01,2013-02-15 16:46:00,
2013-02-15 09:51:00,41.9,23.2,30.42,SE,126,2.7,4.9,47,0.00,,---,0.00,VWS V14.01,2013-02-15 16:51:00,
2013-02-15 09:56:00,42.4,22.1,30.42,SE,138,4.0,5.4,44,0.00,,---,0.00,VWS V14.01,2013-02-15 16:56:00,
2013-02-15 10:01:00,42.4,21.0,30.42,ESE,116,2.7,4.0,42,0.00,,---,0.00,VWS V14.01,2013-02-15 17:01:00,
2013-02-15 10:06:00,43.2,21.1,30.42,SE,133,2.7,5.4,41,0.00,,---,0.00,VWS V14.01,2013-02-15 17:06:00,
2013-02-15 10:11:00,43.7,21.0,30.42,ESE,119,0.0,5.4,40,0.00,,---,0.00,VWS V14.01,2013-02-15 17:11:00,
2013-02-15 10:16:00,44.6,20.6,30.42,East,89,3.6,5.4,38,0.00,,---,0.00,VWS V14.01,2013-02-15 17:16:00,
2013-02-15 10:21:00,45.3,21.2,30.42,ESE,108,4.0,5.4,38,0.00,,---,0.00,VWS V14.01,2013-02-15 17:21:00,
2013-02-15 10:26:00,45.5,20.1,30.42,SE,131,4.9,5.8,36,0.00,,---,0.00,VWS V14.01,2013-02-15 17:26:00,
2013-02-15 10:31:00,46.0,19.9,30.42,East,92,3.1,4.0,35,0.00,,---,0.00,VWS V14.01,2013-02-15 17:31:00,
2013-02-15 10:36:00,46.2,18.7,30.42,ESE,102,2.7,6.3,33,0.00,,---,0.00,VWS V14.01,2013-02-15 17:36:00,
2013-02-15 10:41:00,45.9,17.7,30.42,East,81,5.8,7.6,32,0.00,,---,0.00,VWS V14.01,2013-02-15 17:41:00,
2013-02-15 10:46:00,45.3,17.2,30.42,SSE,148,3.6,6.3,32,0.00,,---,0.00,VWS V14.01,2013-02-15 17:46:00,
2013-02-15 10:51:00,45.9,17.7,30.42,ESE,117,3.1,6.3,32,0.00,,---,0.00,VWS V14.01,2013-02-15 17:51:00,
2013-02-15 10:56:00,46.9,18.6,30.42,ESE,106,4.9,6.3,32,0.00,,---,0.00,VWS V14.01,2013-02-15 17:56:00,
2013-02-15 11:01:00,48.0,18.8,30.42,East,93,3.1,4.9,31,0.00,,---,0.00,VWS V14.01,2013-02-15 18:01:00,
2013-02-15 11:06:00,48.0,18.1,30.42,SSE,155,3.6,5.8,30,0.00,,---,0.00,VWS V14.01,2013-02-15 18:06:00,
2013-02-15 11:11:00,47.8,17.9,30.42,SE,126,2.7,6.3,30,0.00,,---,0.00,VWS V14.01,2013-02-15 18:11:00,
2013-02-15 11:16:00,48.0,18.1,30.42,ESE,108,0.0,2.2,30,0.00,,---,0.00,VWS V14.01,2013-02-15 18:16:00,
2013-02-15 11:21:00,48.7,18.7,30.42,East,89,4.0,5.4,30,0.00,,---,0.00,VWS V14.01,2013-02-15 18:21:00,
2013-02-15 11:26:00,48.6,17.8,30.42,East,88,5.4,7.6,29,0.00,,---,0.00,VWS V14.01,2013-02-15 18:26:00,
2013-02-15 11:31:00,48.4,17.6,30.42,East,85,6.3,6.3,29,0.00,,---,0.00,VWS V14.01,2013-02-15 18:31:00,
2013-02-15 11:36:00,48.7,17.9,30.42,ESE,104,3.6,7.6,29,0.00,,---,0.00,VWS V14.01,2013-02-15 18:36:00,
2013-02-15 11:41:00,48.6,17.8,30.42,ENE,66,5.4,7.6,29,0.00,,---,0.00,VWS V14.01,2013-02-15 18:41:00,
2013-02-15 11:46:00,48.4,17.6,30.42,East,96,5.8,5.8,29,0.00,,---,0.00,VWS V14.01,2013-02-15 18:46:00,
2013-02-15 11:51:00,48.7,17.1,30.42,ENE,76,6.3,8.1,28,0.00,,---,0.00,VWS V14.01,2013-02-15 18:51:00,
2013-02-15 11:56:00,48.9,17.3,30.42,ESE,123,5.8,8.1,28,0.00,,---,0.00,VWS V14.01,2013-02-15 18:56:00,
2013-02-15 12:01:00,49.1,17.4,30.42,ESE,117,2.7,4.0,28,0.00,,---,0.00,VWS V14.01,2013-02-15 19:01:00,
2013-02-15 12:06:00,49.8,18.0,30.42,SE,138,4.0,5.8,28,0.00,,---,0.00,VWS V14.01,2013-02-15 19:06:00,
2013-02-15 12:11:00,50.2,18.4,30.39,SSE,151,7.2,7.2,28,0.00,,---,0.00,VWS V14.01,2013-02-15 19:11:00,
2013-02-15 12:16:00,50.2,18.4,30.39,East,99,2.2,3.6,28,0.00,,---,0.00,VWS V14.01,2013-02-15 19:16:00,
2013-02-15 12:21:00,50.4,17.7,30.39,ESE,106,6.3,8.3,27,0.00,,---,0.00,VWS V14.01,2013-02-15 19:21:00,
2013-02-15 12:26:00,50.0,17.4,30.39,SSE,155,4.0,8.3,27,0.00,,---,0.00,VWS V14.01,2013-02-15 19:26:00,
2013-02-15 12:31:00,50.2,17.5,30.39,East,93,3.1,7.2,27,0.00,,---,0.00,VWS V14.01,2013-02-15 19:31:00,
2013-02-15 12:36:00,50.4,17.7,30.39,ESE,102,3.6,8.3,27,0.00,,---,0.00,VWS V14.01,2013-02-15 19:36:00,
2013-02-15 12:41:00,51.1,18.3,30.39,ESE,106,4.0,8.3,27,0.00,,---,0.00,VWS V14.01,2013-02-15 19:41:00,
2013-02-15 12:46:00,51.8,18.9,30.39,ENE,76,0.0,3.6,27,0.00,,---,0.00,VWS V14.01,2013-02-15 19:46:00,
2013-02-15 12:51:00,52.2,19.2,30.39,North,0,0.0,3.6,27,0.00,,---,0.00,VWS V14.01,2013-02-15 19:51:00,
2013-02-15 12:57:00,51.1,18.3,30.39,NW,308,3.1,4.0,27,0.00,,---,0.00,VWS V14.01,2013-02-15 19:57:00,
2013-02-15 13:02:00,50.5,17.8,30.39,North,350,0.0,0.0,27,0.00,,---,0.00,VWS V14.01,2013-02-15 20:02:00,
2013-02-15 13:07:00,51.3,18.4,30.39,ESE,112,2.7,6.3,27,0.00,,---,0.00,VWS V14.01,2013-02-15 20:07:00,
2013-02-15 13:12:00,52.0,19.1,30.39,SE,130,0.0,6.3,27,0.00,,---,0.00,VWS V14.01,2013-02-15 20:12:00,
2013-02-15 13:17:00,52.9,19.8,30.39,East,97,3.6,5.4,27,0.00,,---,0.00,VWS V14.01,2013-02-15 20:17:00,
2013-02-15 13:22:00,53.2,20.1,30.39,ESE,119,2.7,6.3,27,0.00,,---,0.00,VWS V14.01,2013-02-15 20:22:00,
2013-02-15 13:27:00,52.9,19.8,30.36,East,83,4.0,6.7,27,0.00,,---,0.00,VWS V14.01,2013-02-15 20:27:00,
2013-02-15 13:32:00,53.1,20.0,30.36,SE,137,3.1,4.9,27,0.00,,---,0.00,VWS V14.01,2013-02-15 20:32:00,
2013-02-15 13:37:00,53.2,20.1,30.36,ESE,112,7.6,7.6,27,0.00,,---,0.00,VWS V14.01,2013-02-15 20:37:00,
2013-02-15 13:42:00,52.9,19.8,30.36,SSE,155,5.8,8.1,27,0.00,,---,0.00,VWS V14.01,2013-02-15 20:42:00,
2013-02-15 13:47:00,53.1,20.0,30.36,ESE,120,5.4,5.4,27,0.00,,---,0.00,VWS V14.01,2013-02-15 20:47:00,
2013-02-15 13:52:00,53.1,20.0,30.36,SE,134,2.7,8.7,27,0.00,,---,0.00,VWS V14.01,2013-02-15 20:52:00,
2013-02-15 13:57:00,53.8,19.7,30.36,West,260,5.4,8.7,26,0.00,,---,0.00,VWS V14.01,2013-02-15 20:57:00,
2013-02-15 14:02:00,53.8,19.7,30.36,NW,312,3.1,5.8,26,0.00,,---,0.00,VWS V14.01,2013-02-15 21:02:00,
2013-02-15 14:07:00,53.4,19.4,30.36,West,266,3.6,6.3,26,0.00,,---,0.00,VWS V14.01,2013-02-15 21:07:00,
2013-02-15 14:12:00,53.8,19.7,30.36,SSW,208,4.9,6.3,26,0.00,,---,0.00,VWS V14.01,2013-02-15 21:12:00,
2013-02-15 14:17:00,54.3,20.2,30.36,WNW,297,3.1,4.9,26,0.00,,---,0.00,VWS V14.01,2013-02-15 21:17:00,
2013-02-15 14:22:00,52.9,19.0,30.36,NW,316,4.9,4.9,26,0.00,,---,0.00,VWS V14.01,2013-02-15 21:22:00,
2013-02-15 14:27:00,52.5,18.6,30.36,NNW,345,2.7,4.9,26,0.00,,---,0.00,VWS V14.01,2013-02-15 21:27:00,
2013-02-15 14:32:00,52.7,18.8,30.36,SSE,154,4.0,5.4,26,0.00,,---,0.00,VWS V14.01,2013-02-15 21:32:00,
2013-02-15 14:37:00,53.8,19.7,30.36,WNW,283,3.6,5.4,26,0.00,,---,0.00,VWS V14.01,2013-02-15 21:37:00,
2013-02-15 14:42:00,54.9,20.6,30.36,East,81,0.0,5.4,26,0.00,,---,0.00,VWS V14.01,2013-02-15 21:42:00,
2013-02-15 14:47:00,54.7,20.5,30.36,ENE,69,0.0,3.6,26,0.00,,---,0.00,VWS V14.01,2013-02-15 21:47:00,
2013-02-15 14:52:00,54.7,20.5,30.36,East,97,0.0,3.6,26,0.00,,---,0.00,VWS V14.01,2013-02-15 21:52:00,
2013-02-15 14:57:00,54.5,20.3,30.33,NNE,12,3.6,4.9,26,0.00,,---,0.00,VWS V14.01,2013-02-15 21:57:00,
2013-02-15 15:02:00,53.6,19.6,30.33,North,10,3.6,6.3,26,0.00,,---,0.00,VWS V14.01,2013-02-15 22:02:00,
2013-02-15 15:07:00,54.0,19.9,30.33,East,97,3.1,6.3,26,0.00,,---,0.00,VWS V14.01,2013-02-15 22:07:00,
2013-02-15 15:12:00,54.7,20.5,30.33,ENE,62,3.1,6.3,26,0.00,,---,0.00,VWS V14.01,2013-02-15 22:12:00,
2013-02-15 15:17:00,55.4,20.2,30.33,ENE,58,2.7,3.6,25,0.00,,---,0.00,VWS V14.01,2013-02-15 22:17:00,
2013-02-15 15:22:00,55.8,20.5,30.33,East,94,4.9,7.6,25,0.00,,---,0.00,VWS V14.01,2013-02-15 22:22:00,
2013-02-15 15:27:00,55.0,20.8,30.33,East,82,2.7,7.6,26,0.00,,---,0.00,VWS V14.01,2013-02-15 22:27:00,
2013-02-15 15:32:00,55.2,21.0,30.33,NE,49,2.2,4.9,26,0.00,,---,0.00,VWS V14.01,2013-02-15 22:32:00,
2013-02-15 15:37:00,54.3,20.2,30.33,NE,56,3.1,4.9,26,0.00,,---,0.00,VWS V14.01,2013-02-15 22:37:00,
2013-02-15 15:42:00,54.0,19.9,30.33,ENE,71,4.9,5.4,26,0.00,,---,0.00,VWS V14.01,2013-02-15 22:42:00,
2013-02-15 15:47:00,54.5,20.3,30.33,ENE,73,4.0,4.9,26,0.00,,---,0.00,VWS V14.01,2013-02-15 22:47:00,
2013-02-15 15:52:00,54.7,20.5,30.33,East,85,0.0,5.4,26,0.00,,---,0.00,VWS V14.01,2013-02-15 22:52:00,
2013-02-15 15:57:00,53.6,19.6,30.33,NNE,12,3.6,5.4,26,0.00,,---,0.00,VWS V14.01,2013-02-15 22:57:00,
2013-02-15 16:02:00,53.1,19.1,30.33,NNE,20,0.0,2.2,26,0.00,,---,0.00,VWS V14.01,2013-02-15 23:02:00,
2013-02-15 16:07:00,52.5,18.6,30.33,NNE,12,0.0,4.0,26,0.00,,---,0.00,VWS V14.01,2013-02-15 23:07:00,
2013-02-15 16:12:00,52.3,18.5,30.33,NW,304,0.0,4.0,26,0.00,,---,0.00,VWS V14.01,2013-02-15 23:12:00,
2013-02-15 16:17:00,53.1,19.1,30.33,NW,320,0.0,0.0,26,0.00,,---,0.00,VWS V14.01,2013-02-15 23:17:00,
2013-02-15 16:22:00,54.1,20.0,30.33,WSW,245,3.6,4.0,26,0.00,,---,0.00,VWS V14.01,2013-02-15 23:22:00,
2013-02-15 16:27:00,54.3,20.2,30.33,SW,229,0.0,5.4,26,0.00,,---,0.00,VWS V14.01,2013-02-15 23:27:00,
2013-02-15 16:32:00,53.8,19.7,30.33,NW,319,0.0,4.0,26,0.00,,---,0.00,VWS V14.01,2013-02-15 23:32:00,
2013-02-15 16:37:00,51.4,18.6,30.33,NNE,12,4.0,5.8,27,0.00,,---,0.00,VWS V14.01,2013-02-15 23:37:00,
2013-02-15 16:42:00,50.0,17.4,30.33,North,2,5.4,6.3,27,0.00,,---,0.00,VWS V14.01,2013-02-15 23:42:00,
2013-02-15 16:47:00,49.3,16.7,30.33,North,353,2.7,4.0,27,0.00,,---,0.00,VWS V14.01,2013-02-15 23:47:00,
2013-02-15 16:52:00,49.1,16.6,30.33,North,357,3.6,4.0,27,0.00,,---,0.00,VWS V14.01,2013-02-15 23:52:00,
2013-02-15 16:57:00,48.9,16.4,30.33,North,3,0.0,4.0,27,0.00,,---,0.00,VWS V14.01,2013-02-15 23:57:00,
2013-02-15 17:02:00,48.0,16.5,30.33,North,3,0.0,0.0,28,0.00,,---,0.00,VWS V14.01,2013-02-16 00:02:00,
2013-02-15 17:07:00,46.4,14.2,30.33,WSW,252,0.0,0.0,27,0.00,,---,0.00,VWS V14.01,2013-02-16 00:07:00,
2013-02-15 17:12:00,45.0,13.8,30.33,WNW,298,0.0,0.0,28,0.00,,---,0.00,VWS V14.01,2013-02-16 00:12:00,
2013-02-15 17:17:00,43.9,13.7,30.33,WNW,298,0.0,0.0,29,0.00,,---,0.00,VWS V14.01,2013-02-16 00:17:00,
2013-02-15 17:22:00,42.8,12.8,30.33,West,277,0.0,0.0,29,0.00,,---,0.00,VWS V14.01,2013-02-16 00:22:00,
2013-02-15 17:27:00,41.9,12.0,30.33,WSW,253,0.0,0.0,29,0.00,,---,0.00,VWS V14.01,2013-02-16 00:27:00,
2013-02-15 17:33:00,41.0,12.0,30.33,SSW,209,0.0,0.0,30,0.00,,---,0.00,VWS V14.01,2013-02-16 00:33:00,
2013-02-15 17:38:00,39.9,12.5,30.33,WNW,283,0.0,0.0,32,0.00,,---,0.00,VWS V14.01,2013-02-16 00:38:00,
2013-02-15 17:43:00,39.6,12.9,30.33,WNW,300,0.0,0.0,33,0.00,,---,0.00,VWS V14.01,2013-02-16 00:43:00,
2013-02-15 17:48:00,39.7,13.0,30.33,WNW,300,0.0,0.0,33,0.00,,---,0.00,VWS V14.01,2013-02-16 00:48:00,
2013-02-15 17:53:00,38.8,13.5,30.33,West,264,0.0,0.0,35,0.00,,---,0.00,VWS V14.01,2013-02-16 00:53:00,
2013-02-15 17:58:00,38.5,13.9,30.30,West,270,0.0,0.0,36,0.00,,---,0.00,VWS V14.01,2013-02-16 00:58:00,
2013-02-15 18:03:00,37.8,13.8,30.30,West,274,0.0,0.0,37,0.00,,---,0.00,VWS V14.01,2013-02-16 01:03:00,
2013-02-15 18:08:00,37.9,15.2,30.30,NW,312,2.2,3.1,39,0.00,,---,0.00,VWS V14.01,2013-02-16 01:08:00,
2013-02-15 18:13:00,37.9,15.2,30.30,WNW,285,0.0,3.6,39,0.00,,---,0.00,VWS V14.01,2013-02-16 01:13:00,
2013-02-15 18:18:00,37.6,14.9,30.30,West,275,0.0,0.0,39,0.00,,---,0.00,VWS V14.01,2013-02-16 01:18:00,
2013-02-15 18:23:00,36.9,14.8,30.30,WNW,295,0.0,0.0,40,0.00,,---,0.00,VWS V14.01,2013-02-16 01:23:00,
2013-02-15 18:28:00,36.5,14.5,30.30,South,188,0.0,0.0,40,0.00,,---,0.00,VWS V14.01,2013-02-16 01:28:00,
2013-02-15 18:33:00,35.6,13.7,30.30,South,190,3.6,4.0,40,0.00,,---,0.00,VWS V14.01,2013-02-16 01:33:00,
2013-02-15 18:38:00,34.9,13.0,30.30,SSW,197,2.7,4.0,40,0.00,,---,0.00,VWS V14.01,2013-02-16 01:38:00,
2013-02-15 18:43:00,34.3,12.5,30.30,SSW,197,0.0,4.0,40,0.00,,---,0.00,VWS V14.01,2013-02-16 01:43:00,
2013-02-15 18:48:00,34.0,13.9,30.30,WNW,295,0.0,0.0,43,0.00,,---,0.00,VWS V14.01,2013-02-16 01:48:00,
2013-02-15 18:53:00,34.0,13.9,30.30,West,267,0.0,0.0,43,0.00,,---,0.00,VWS V14.01,2013-02-16 01:53:00,
2013-02-15 18:58:00,33.8,14.2,30.30,West,269,0.0,0.0,44,0.00,,---,0.00,VWS V14.01,2013-02-16 01:58:00,
2013-02-15 19:03:00,33.1,13.6,30.30,West,269,0.0,0.0,44,0.00,,---,0.00,VWS V14.01,2013-02-16 02:03:00,
2013-02-15 19:08:00,32.7,14.2,30.30,WNW,293,2.2,3.6,46,0.00,,---,0.00,VWS V14.01,2013-02-16 02:08:00,
2013-02-15 19:13:00,32.5,13.6,30.30,South,185,3.6,4.0,45,0.00,,---,0.00,VWS V14.01,2013-02-16 02:13:00,
2013-02-15 19:18:00,32.4,13.9,30.30,WSW,241,2.7,4.0,46,0.00,,---,0.00,VWS V14.01,2013-02-16 02:18:00,
2013-02-15 19:23:00,31.8,13.4,30.30,WSW,257,0.0,4.0,46,0.00,,---,0.00,VWS V14.01,2013-02-16 02:23:00,
2013-02-15 19:28:00,31.6,14.7,30.30,WNW,297,0.0,4.0,49,0.00,,---,0.00,VWS V14.01,2013-02-16 02:28:00,
2013-02-15 19:33:00,32.5,16.0,30.30,WNW,292,0.0,3.6,50,0.00,,---,0.00,VWS V14.01,2013-02-16 02:33:00,
2013-02-15 19:38:00,32.4,15.4,30.30,West,266,0.0,3.6,49,0.00,,---,0.00,VWS V14.01,2013-02-16 02:38:00,
2013-02-15 19:43:00,31.6,14.2,30.30,West,278,2.7,4.0,48,0.00,,---,0.00,VWS V14.01,2013-02-16 02:43:00,
2013-02-15 19:48:00,30.9,13.6,30.30,West,263,0.0,2.7,48,0.00,,---,0.00,VWS V14.01,2013-02-16 02:48:00,
2013-02-15 19:53:00,30.7,13.9,30.30,West,265,0.0,2.7,49,0.00,,---,0.00,VWS V14.01,2013-02-16 02:53:00,
2013-02-15 19:58:00,30.7,13.4,30.30,SW,227,0.0,2.7,48,0.00,,---,0.00,VWS V14.01,2013-02-16 02:58:00,
2013-02-15 20:03:00,30.4,14.0,30.30,WSW,237,0.0,0.0,50,0.00,,---,0.00,VWS V14.01,2013-02-16 03:03:00,
2013-02-15 20:08:00,30.2,14.3,30.30,West,265,0.0,0.0,51,0.00,,---,0.00,VWS V14.01,2013-02-16 03:08:00,
2013-02-15 20:13:00,29.8,13.9,30.30,SW,214,0.0,0.0,51,0.00,,---,0.00,VWS V14.01,2013-02-16 03:13:00,
2013-02-15 20:18:00,29.5,13.1,30.30,SW,214,0.0,0.0,50,0.00,,---,0.00,VWS V14.01,2013-02-16 03:18:00,
2013-02-15 20:23:00,29.1,12.8,30.30,SW,214,0.0,0.0,50,0.00,,---,0.00,VWS V14.01,2013-02-16 03:23:00,
2013-02-15 20:28:00,28.8,12.5,30.30,SW,214,0.0,0.0,50,0.00,,---,0.00,VWS V14.01,2013-02-16 03:28:00,
2013-02-15 20:33:00,28.6,12.3,30.30,WSW,238,0.0,3.1,50,0.00,,---,0.00,VWS V14.01,2013-02-16 03:33:00,
2013-02-15 20:38:00,28.6,12.8,30.30,WSW,238,0.0,3.1,51,0.00,,---,0.00,VWS V14.01,2013-02-16 03:38:00,
2013-02-15 20:43:00,28.4,13.0,30.30,WSW,250,0.0,3.1,52,0.00,,---,0.00,VWS V14.01,2013-02-16 03:43:00,
2013-02-15 20:48:00,28.4,13.0,30.30,WSW,248,3.1,3.1,52,0.00,,---,0.00,VWS V14.01,2013-02-16 03:48:00,
2013-02-15 20:53:00,28.6,12.8,30.30,WSW,247,2.2,3.1,51,0.00,,---,0.00,VWS V14.01,2013-02-16 03:53:00,
2013-02-15 20:58:00,28.6,13.2,30.30,SW,230,0.0,3.1,52,0.00,,---,0.00,VWS V14.01,2013-02-16 03:58:00,
2013-02-15 21:03:00,28.6,13.2,30.30,WSW,256,0.0,4.9,52,0.00,,---,0.00,VWS V14.01,2013-02-16 04:03:00,
2013-02-15 21:08:00,28.8,13.8,30.30,South,190,0.0,4.9,53,0.00,,---,0.00,VWS V14.01,2013-02-16 04:08:00,
2013-02-15 21:13:00,28.9,14.0,30.30,WSW,241,0.0,4.9,53,0.00,,---,0.00,VWS V14.01,2013-02-16 04:13:00,
2013-02-15 21:18:00,28.9,14.0,30.30,WSW,241,0.0,3.1,53,0.00,,---,0.00,VWS V14.01,2013-02-16 04:18:00,
2013-02-15 21:23:00,28.8,13.8,30.30,South,183,0.0,3.6,53,0.00,,---,0.00,VWS V14.01,2013-02-16 04:23:00,
2013-02-15 21:28:00,28.6,13.6,30.30,South,175,2.2,3.6,53,0.00,,---,0.00,VWS V14.01,2013-02-16 04:28:00,
2013-02-15 21:33:00,28.0,13.6,30.30,SW,227,0.0,0.0,54,0.00,,---,0.00,VWS V14.01,2013-02-16 04:33:00,
2013-02-15 21:38:00,28.2,13.7,30.30,WSW,240,0.0,0.0,54,0.00,,---,0.00,VWS V14.01,2013-02-16 04:38:00,
2013-02-15 21:43:00,28.0,13.6,30.30,SW,221,0.0,0.0,54,0.00,,---,0.00,VWS V14.01,2013-02-16 04:43:00,
2013-02-15 21:48:00,28.0,13.6,30.30,WSW,252,0.0,3.6,54,0.00,,---,0.00,VWS V14.01,2013-02-16 04:48:00,
2013-02-15 21:53:00,27.9,13.4,30.30,WSW,250,0.0,3.6,54,0.00,,---,0.00,VWS V14.01,2013-02-16 04:53:00,
2013-02-15 21:58:00,27.7,13.2,30.30,WSW,252,0.0,3.6,54,0.00,,---,0.00,VWS V14.01,2013-02-16 04:58:00,
2013-02-15 22:00:00,27.7,13.2,30.30,WSW,252,0.0,3.6,54,0.00,,---,0.00,VWS V14.01,2013-02-16 05:00:00,
2013-02-15 22:05:00,27.3,13.7,30.30,WSW,252,0.0,0.0,56,0.00,,---,0.00,VWS V14.01,2013-02-16 05:05:00,
2013-02-15 22:10:00,26.8,12.8,30.30,SW,233,0.0,0.0,55,0.00,,---,0.00,VWS V14.01,2013-02-16 05:10:00,
2013-02-15 22:15:00,26.6,13.0,30.30,WSW,241,0.0,0.0,56,0.00,,---,0.00,VWS V14.01,2013-02-16 05:15:00,
2013-02-15 22:20:00,26.4,12.9,30.30,West,260,0.0,0.0,56,0.00,,---,0.00,VWS V14.01,2013-02-16 05:20:00,
2013-02-15 22:23:00,26.4,12.9,30.30,WSW,239,0.0,0.0,56,0.00,,---,0.00,VWS V14.01,2013-02-16 05:23:00,
2013-02-15 22:28:00,26.4,12.9,30.30,WSW,243,0.0,0.0,56,0.00,,---,0.00,VWS V14.01,2013-02-16 05:28:00,
2013-02-15 22:33:00,26.1,12.5,30.30,WSW,243,0.0,0.0,56,0.00,,---,0.00,VWS V14.01,2013-02-16 05:33:00,
2013-02-15 22:38:00,25.9,12.4,30.30,SSW,207,0.0,0.0,56,0.00,,---,0.00,VWS V14.01,2013-02-16 05:38:00,
2013-02-15 22:43:00,25.9,12.8,30.30,West,261,0.0,0.0,57,0.00,,---,0.00,VWS V14.01,2013-02-16 05:43:00,
2013-02-15 22:48:00,25.7,12.2,30.30,West,260,0.0,0.0,56,0.00,,---,0.00,VWS V14.01,2013-02-16 05:48:00,
2013-02-15 22:53:00,25.5,12.4,30.30,West,260,0.0,0.0,57,0.00,,---,0.00,VWS V14.01,2013-02-16 05:53:00,
2013-02-15 22:58:00,25.7,12.6,30.30,WSW,253,0.0,0.0,57,0.00,,---,0.00,VWS V14.01,2013-02-16 05:58:00,
2013-02-15 23:03:00,25.9,12.8,30.30,WSW,254,0.0,0.0,57,0.00,,---,0.00,VWS V14.01,2013-02-16 06:03:00,
2013-02-15 23:08:00,25.9,12.8,30.30,WSW,255,0.0,0.0,57,0.00,,---,0.00,VWS V14.01,2013-02-16 06:08:00,
2013-02-15 23:13:00,25.7,13.0,30.27,West,266,0.0,0.0,58,0.00,,---,0.00,VWS V14.01,2013-02-16 06:13:00,
2013-02-15 23:18:00,26.1,13.7,30.27,West,260,0.0,0.0,59,0.00,,---,0.00,VWS V14.01,2013-02-16 06:18:00,
2013-02-15 23:23:00,26.2,13.9,30.27,WSW,253,0.0,0.0,59,0.00,,---,0.00,VWS V14.01,2013-02-16 06:23:00,
2013-02-15 23:28:00,26.2,13.9,30.27,WSW,253,0.0,0.0,59,0.00,,---,0.00,VWS V14.01,2013-02-16 06:28:00,
2013-02-15 23:33:00,26.4,14.1,30.27,West,261,0.0,0.0,59,0.00,,---,0.00,VWS V14.01,2013-02-16 06:33:00,
2013-02-15 23:38:00,26.4,14.4,30.27,WSW,258,0.0,0.0,60,0.00,,---,0.00,VWS V14.01,2013-02-16 06:38:00,
2013-02-15 23:43:00,26.4,14.1,30.27,WSW,257,0.0,0.0,59,0.00,,---,0.00,VWS V14.01,2013-02-16 06:43:00,
2013-02-15 23:48:00,26.4,14.1,30.27,WSW,257,0.0,0.0,59,0.00,,---,0.00,VWS V14.01,2013-02-16 06:48:00,
2013-02-15 23:53:00,26.1,13.7,30.27,West,261,0.0,0.0,59,0.00,,---,0.00,VWS V14.01,2013-02-16 06:53:00,
2013-02-15 23:58:00,25.9,13.5,30.27,WSW,251,0.0,0.0,59,0.00,,---,0.00,VWS V14.01,2013-02-16 06:58:00,